Time;durP1;ratioP1;P1;durP2;ratioP2;P2;SDS_P1;SDS_P2;PMS_P1;PMS_P2;Temp;Humidity;BMP_temperature;BMP_pressure;BME280_temperature;BME280_humidity;BME280_pressure;Samples;Min_cycle;Max_cycle;Signal;HPM_P1;HPM_P2
2022/02/05 00:00:13;;;;;;;9.60;1.58;;;3.70;99.90;;;2.15;100.00;99966.13;4893132;28;20110;-86
2022/02/05 00:02:26;;;;;;;18.23;1.35;;;;;;;2.14;100.00;99922.88;4934579;28;20038;-89
2022/02/05 00:05:43;;;;;;;12.10;1.50;;;3.80;99.90;;;2.18;100.00;99966.06;4924983;28;20051;-86
2022/02/05 00:11:07;;;;;;;8.93;1.30;;;3.80;99.90;;;2.30;100.00;99967.50;4929693;28;20031;-82
2022/02/05 00:14:18;;;;;;;8.65;1.35;;;3.90;99.90;;;2.28;100.00;99984.03;4895001;28;20030;-83
2022/02/05 00:44:12;;;;;;;12.75;1.70;;;;;;;2.53;100.00;100029.31;4921666;28;21866;-81
2022/02/05 00:46:40;;;;;;;25.05;1.88;;;;;;;2.54;100.00;100041.41;4898322;28;20026;-83
2022/02/05 00:49:07;;;;;;;13.77;1.77;;;4.10;99.90;;;2.50;100.00;100044.97;4914363;28;20021;-85
2022/02/05 00:51:48;;;;;;;15.50;2.03;;;4.10;99.90;;;2.51;100.00;100053.63;4947400;28;20038;-82
2022/02/05 00:54:26;;;;;;;12.60;1.83;;;;;;;2.48;100.00;100049.34;4908923;28;20021;-86
2022/02/05 00:59:27;;;;;;;16.80;2.28;;;4.10;99.90;;;2.45;100.00;100062.41;4928122;28;20038;-83
2022/02/05 01:01:53;;;;;;;14.68;1.95;;;4.10;99.90;;;2.41;100.00;100065.97;4926430;28;20107;-79
2022/02/05 01:04:19;;;;;;;12.88;1.48;;;4.00;99.90;;;2.35;100.00;100066.97;4872619;28;20034;-80
2022/02/05 01:06:53;;;;;;;11.82;1.80;;;4.00;99.90;;;2.32;100.00;100081.78;4944071;28;20032;-79
2022/02/05 01:09:22;;;;;;;6.80;1.35;;;4.00;99.90;;;2.30;100.00;100073.19;4985289;28;20025;-80
2022/02/05 01:11:59;;;;;;;11.85;1.45;;;3.90;99.90;;;2.29;100.00;100076.66;4923740;28;20030;-79
2022/02/05 01:14:30;;;;;;;4.57;0.93;;;3.90;99.90;;;2.29;100.00;100093.13;4984679;28;20029;-79
2022/02/05 01:17:04;;;;;;;8.93;1.40;;;3.90;99.90;;;2.24;100.00;100085.41;4892029;28;20034;-79
2022/02/05 01:20:04;;;;;;;9.68;1.48;;;3.90;99.90;;;2.26;100.00;100088.81;4922881;28;20036;-79
2022/02/05 01:22:22;;;;;;;15.77;2.00;;;3.90;99.90;;;2.28;100.00;100093.97;4912011;28;20027;-79
2022/02/05 01:24:51;;;;;;;16.08;2.00;;;3.90;99.90;;;2.31;100.00;100099.13;4907584;28;20059;-80
2022/02/05 01:30:17;;;;;;;18.50;2.13;;;4.00;99.90;;;2.31;100.00;100106.03;4940631;28;20122;-79
2022/02/05 01:32:53;;;;;;;19.30;2.50;;;3.90;99.90;;;2.24;100.00;100111.38;4922974;28;20071;-79
2022/02/05 01:36:01;;;;;;;16.80;3.17;;;3.90;99.90;;;2.24;100.00;100108.78;4900384;28;20021;-80
2022/02/05 01:52:07;;;;;;;26.63;3.63;;;3.80;99.90;;;2.25;100.00;100135.63;4919646;28;20034;-79
2022/02/05 01:57:21;;;;;;;25.02;3.30;;;3.90;99.90;;;2.38;100.00;100139.66;4929589;28;20156;-80
2022/02/05 02:04:45;;;;;;;14.18;3.05;;;3.90;99.90;;;2.38;100.00;100129.28;4961415;28;20509;-80
2022/02/05 02:05:38;;;;;;;20.98;2.70;;;4.00;99.90;;;2.45;100.00;100146.41;4954340;28;20033;-78
2022/02/05 02:11:27;;;;;;;26.27;3.30;;;4.10;99.90;;;2.51;100.00;100158.44;4948018;28;20163;-79
2022/02/05 02:14:30;;;;;;;15.23;3.00;;;4.10;99.90;;;2.47;100.00;100143.78;4935379;28;20409;-79
2022/02/05 02:19:27;;;;;;;17.30;2.33;;;4.00;99.90;;;2.38;100.00;100149.22;4938885;28;20083;-78
2022/02/05 02:22:07;;;;;;;22.70;2.58;;;4.00;99.90;;;2.41;100.00;100157.78;4946152;28;20087;-79
2022/02/05 02:27:32;;;;;;;26.43;2.63;;;4.00;99.90;;;2.44;100.00;100175.03;4928463;28;20514;-79
2022/02/05 02:32:45;;;;;;;25.02;2.97;;;4.10;99.90;;;2.44;100.00;100164.63;4914598;28;20038;-79
2022/02/05 02:35:17;;;;;;;18.15;2.58;;;4.00;99.90;;;2.42;100.00;100171.66;4924837;28;20729;-79
2022/02/05 02:37:53;;;;;;;17.88;2.35;;;4.00;99.90;;;2.35;100.00;100176.09;4906796;28;20038;-79
2022/02/05 02:43:05;;;;;;;18.88;1.85;;;4.00;99.90;;;2.33;100.00;100180.47;4933032;28;20045;-79
2022/02/05 02:45:33;;;;;;;21.52;2.80;;;3.90;99.90;;;2.36;100.00;100183.00;4915400;28;20031;-79
2022/02/05 02:47:59;;;;;;;24.85;2.55;;;4.00;99.90;;;2.43;100.00;100173.34;4936099;28;20052;-80
2022/02/05 02:58:51;;;;;;;26.30;2.50;;;4.10;99.90;;;2.50;100.00;100213.03;4894958;28;20085;-78
2022/02/05 03:01:19;;;;;;;27.25;2.83;;;4.10;99.90;;;2.53;100.00;100202.56;4900463;28;20089;-79
2022/02/05 03:03:47;;;;;;;17.90;2.60;;;4.10;99.90;;;2.55;100.00;100218.97;4925363;28;20057;-80
2022/02/05 03:06:19;;;;;;;16.60;2.45;;;4.20;99.90;;;2.59;100.00;100226.69;4930692;28;20157;-80
2022/02/05 03:08:47;;;;;;;27.05;2.85;;;4.20;99.90;;;2.63;100.00;100227.47;4926852;28;20066;-79
2022/02/05 03:11:15;;;;;;;23.88;2.67;;;4.20;99.90;;;2.66;100.00;100223.06;4892030;28;20054;-80
2022/02/05 03:13:46;;;;;;;24.00;3.45;;;4.30;99.90;;;2.71;100.00;100209.97;4959018;28;20508;-79
2022/02/05 03:16:22;;;;;;;23.00;3.03;;;4.30;99.90;;;2.70;100.00;100235.97;4913230;28;20654;-79
2022/02/05 03:21:23;;;;;;;20.40;2.22;;;4.30;99.90;;;2.70;100.00;100228.19;4916392;28;20297;-80
2022/02/05 03:23:58;;;;;;;22.38;2.60;;;4.30;99.90;;;2.72;100.00;100231.63;5004775;28;20041;-80
2022/02/05 03:26:24;;;;;;;18.42;2.25;;;4.30;99.90;;;2.72;100.00;100236.81;4946586;28;20021;-79
2022/02/05 03:28:50;;;;;;;15.05;2.20;;;4.30;99.90;;;2.65;100.00;100239.53;4950262;28;20165;-78
2022/02/05 03:31:23;;;;;;;22.98;2.20;;;4.30;99.90;;;2.60;100.00;100244.00;4922755;28;20094;-79
2022/02/05 03:33:49;;;;;;;24.98;2.67;;;4.20;99.90;;;2.52;100.00;100248.50;4916617;28;20758;-79
2022/02/05 03:36:15;;;;;;;17.15;2.83;;;4.20;99.90;;;2.53;100.00;100251.94;4908424;28;20026;-80
2022/02/05 03:38:41;;;;;;;16.58;2.53;;;4.20;99.90;;;2.54;100.00;100248.47;4942072;28;20038;-79
2022/02/05 03:41:07;;;;;;;16.30;1.85;;;4.20;99.90;;;2.49;100.00;100240.78;4923468;28;20030;-78
2022/02/05 03:43:42;;;;;;;10.73;1.60;;;4.20;99.90;;;2.49;100.00;100250.31;4902889;28;20067;-79
2022/02/05 03:46:08;;;;;;;7.88;1.45;;;4.10;99.90;;;2.45;100.00;100249.53;4961140;28;20136;-79
2022/02/05 03:48:34;;;;;;;13.73;1.50;;;4.10;99.90;;;2.47;100.00;100253.78;4915781;28;20053;-79
2022/02/05 03:51:03;;;;;;;8.90;1.67;;;4.10;99.90;;;2.50;100.00;100263.25;4914160;28;20026;-79
2022/02/05 03:53:29;;;;;;;8.98;1.67;;;4.10;99.90;;;2.51;100.00;100252.00;4877962;28;20038;-80
2022/02/05 03:55:55;;;;;;;21.67;2.88;;;4.10;99.90;;;2.44;100.00;100251.28;4904918;28;20042;-79
2022/02/05 03:58:21;;;;;;;18.27;2.50;;;4.10;99.90;;;2.43;100.00;100252.13;4873083;28;20034;-79
2022/02/05 04:00:47;;;;;;;17.27;3.00;;;4.10;99.90;;;2.46;100.00;100253.81;4912230;28;20112;-78
2022/02/05 04:03:13;;;;;;;15.98;2.65;;;4.10;99.90;;;2.44;100.00;100246.06;4885056;28;20530;-78
2022/02/05 04:05:39;;;;;;;24.38;2.95;;;4.10;99.90;;;2.47;100.00;100255.53;4894489;28;20026;-79
2022/02/05 04:08:15;;;;;;;19.67;3.65;;;4.10;99.90;;;2.52;100.00;100252.84;4893312;28;20046;-79
2022/02/05 04:10:59;;;;;;;19.55;3.08;;;4.10;99.90;;;2.53;100.00;100262.34;4879180;28;20036;-79
2022/02/05 04:16:24;;;;;;;19.38;3.25;;;4.20;99.90;;;2.59;100.00;100268.28;4941896;28;20033;-79
2022/02/05 04:18:53;;;;;;;17.13;3.10;;;4.20;99.90;;;2.65;100.00;100267.28;4906158;28;20032;-78
2022/02/05 04:21:22;;;;;;;14.77;3.28;;;4.30;99.90;;;2.67;100.00;100270.72;4910002;28;20565;-78
2022/02/05 04:24:00;;;;;;;16.05;3.47;;;4.30;99.90;;;2.70;100.00;100273.25;4898683;28;20116;-79
2022/02/05 04:26:27;;;;;;;17.70;2.85;;;4.30;99.90;;;2.72;100.00;100278.41;4946969;28;20029;-80
2022/02/05 04:28:59;;;;;;;21.90;3.58;;;4.30;99.90;;;2.74;100.00;100276.63;4879363;28;20898;-79
2022/02/05 04:31:25;;;;;;;20.27;3.75;;;4.40;99.90;;;2.77;100.00;100284.38;4908060;28;20522;-79
2022/02/05 04:33:52;;;;;;;21.73;3.20;;;4.40;99.90;;;2.79;100.00;100290.41;4915762;28;23174;-78
2022/02/05 04:36:19;;;;;;;15.88;2.90;;;4.40;99.90;;;2.79;100.00;100290.41;4913659;28;22007;-79
2022/02/05 04:38:54;;;;;;;26.55;3.60;;;4.40;99.90;;;2.81;100.00;100296.44;4917187;28;20477;-79
2022/02/05 04:41:25;;;;;;;20.63;3.55;;;4.40;99.90;;;2.83;100.00;100292.91;4914245;28;20026;-78
2022/02/05 04:50:17;;;;;;;17.65;3.30;;;4.40;99.90;;;2.80;100.00;100305.09;4952123;28;20099;-79
2022/02/05 05:03:24;;;;;;;16.30;3.10;;;4.20;99.90;;;2.52;100.00;100316.06;4898664;28;20122;-78
2022/02/05 05:21:27;;;;;;;10.05;2.22;;;4.30;99.90;;;2.74;100.00;100337.28;4904936;28;20025;-79
2022/02/05 05:23:56;;;;;;;7.93;1.85;;;4.30;99.90;;;2.78;100.00;100335.47;4899919;28;20081;-79
2022/02/05 05:26:22;;;;;;;6.18;1.55;;;4.40;99.90;;;2.78;100.00;100327.69;4950409;28;20033;-78
2022/02/05 05:28:48;;;;;;;6.85;1.40;;;4.40;99.90;;;2.77;100.00;100336.38;4906476;28;20491;-79
2022/02/05 05:31:14;;;;;;;7.82;1.50;;;4.40;99.90;;;2.77;100.00;100338.97;4929391;28;20171;-79
2022/02/05 05:33:49;;;;;;;8.23;1.45;;;4.40;99.90;;;2.81;100.00;100338.03;4897598;28;20030;-78
2022/02/05 05:36:15;;;;;;;9.10;1.52;;;4.40;99.90;;;2.79;100.00;100343.25;4923701;28;20190;-79
2022/02/05 05:38:41;;;;;;;4.60;1.17;;;4.40;99.90;;;2.71;100.00;100339.97;5006230;28;20025;-79
2022/02/05 05:41:08;;;;;;;4.22;1.08;;;4.40;99.90;;;2.65;100.00;100337.47;4952392;28;20063;-79
2022/02/05 05:51:26;;;;;;;6.68;0.93;;;4.20;99.90;;;2.51;100.00;100361.16;4923227;28;20045;-79
2022/02/05 05:53:52;;;;;;;5.38;0.70;;;4.10;99.90;;;2.40;100.00;100360.50;4949656;28;20026;-79
2022/02/05 05:56:26;;;;;;;2.53;0.63;;;4.10;99.90;;;2.34;100.00;100360.63;4945213;28;20490;-79
2022/02/05 05:58:52;;;;;;;3.55;0.80;;;4.00;99.90;;;2.23;100.00;100360.81;4943932;28;20034;-79
2022/02/05 06:01:18;;;;;;;2.55;0.70;;;3.90;99.90;;;2.13;100.00;100373.09;4926098;28;20030;-80
2022/02/05 06:03:44;;;;;;;3.90;0.90;;;3.80;99.90;;;2.02;100.00;100369.84;4949608;28;20045;-79
2022/02/05 06:06:10;;;;;;;1.92;0.82;;;3.70;99.90;;;1.96;100.00;100369.94;4896357;28;20034;-79
2022/02/05 06:08:38;;;;;;;4.35;0.82;;;3.60;99.90;;;1.85;100.00;100378.75;4879574;28;20046;-79
2022/02/05 06:11:07;;;;;;;4.85;1.52;;;3.50;99.90;;;1.82;100.00;100381.41;4947769;28;20017;-80
2022/02/05 06:13:35;;;;;;;2.30;0.52;;;3.50;99.90;;;1.81;100.00;100384.03;4916706;28;20221;-78
2022/02/05 06:16:04;;;;;;;4.50;0.82;;;3.50;99.90;;;1.79;100.00;100394.44;5020812;28;20079;-79
2022/02/05 06:18:38;;;;;;;2.88;0.68;;;3.50;99.90;;;1.77;100.00;100395.34;4936071;28;20603;-79
2022/02/05 06:21:04;;;;;;;4.35;0.80;;;3.40;99.90;;;1.72;100.00;100395.41;4906583;28;20038;-79
2022/02/05 06:23:30;;;;;;;3.22;0.50;;;3.40;99.90;;;1.74;100.00;100405.78;4922614;28;20152;-80
2022/02/05 06:26:01;;;;;;;3.10;0.55;;;3.40;99.90;;;1.78;100.00;100418.69;4922477;28;20113;-79
2022/02/05 06:28:27;;;;;;;2.50;0.50;;;3.40;99.90;;;1.82;100.00;100430.75;4882395;28;20058;-78
2022/02/05 06:30:54;;;;;;;2.08;0.40;;;3.50;99.90;;;1.86;100.00;100384.81;4920425;28;20074;-80
2022/02/05 06:33:21;;;;;;;5.43;0.70;;;3.50;99.90;;;1.93;100.00;100388.19;4951308;28;20029;-79
2022/02/05 06:35:47;;;;;;;1.98;0.52;;;3.50;99.90;;;1.93;100.00;100421.94;4906873;28;20094;-78
2022/02/05 06:38:21;;;;;;;2.50;0.30;;;3.60;99.90;;;1.98;100.00;100431.34;4894942;28;20042;-79
2022/02/05 06:40:47;;;;;;;1.85;0.50;;;3.60;99.90;;;1.98;100.00;100433.09;4925611;28;20041;-79
2022/02/05 06:43:13;;;;;;;2.83;0.50;;;3.60;99.90;;;2.02;100.00;100437.34;4943681;28;20199;-80
2022/02/05 06:45:39;;;;;;;3.85;0.70;;;3.60;99.90;;;1.99;100.00;100433.06;4941978;28;20494;-79
2022/02/05 06:48:14;;;;;;;1.98;0.50;;;3.60;99.90;;;1.98;100.00;100451.25;4928401;28;20117;-77
2022/02/05 06:50:40;;;;;;;6.32;0.73;;;3.60;99.90;;;1.97;100.00;100445.22;4892089;28;20204;-79
2022/02/05 06:53:06;;;;;;;5.70;0.90;;;3.60;99.90;;;1.99;100.00;100450.41;4945973;28;20038;-79
2022/02/05 06:55:37;;;;;;;3.05;0.98;;;3.60;99.90;;;2.01;100.00;100453.84;4961356;28;20059;-80
2022/02/05 06:58:03;;;;;;;3.10;1.00;;;3.60;99.90;;;2.01;100.00;100456.44;4955961;28;20044;-79
2022/02/05 07:00:29;;;;;;;2.67;0.85;;;3.60;99.90;;;2.03;100.00;100468.50;4918077;28;20034;-79
2022/02/05 07:02:55;;;;;;;2.97;0.88;;;3.70;99.90;;;2.05;100.00;100473.66;4929212;28;20041;-79
2022/02/05 07:05:21;;;;;;;3.20;1.00;;;3.60;99.90;;;2.01;100.00;100472.00;4920114;28;20085;-80
2022/02/05 07:07:47;;;;;;;2.47;0.95;;;3.70;99.90;;;2.02;100.00;100471.13;4914883;28;20661;-79
2022/02/05 07:10:21;;;;;;;5.97;1.13;;;3.60;99.90;;;2.02;100.00;100476.31;4969921;28;20056;-78
2022/02/05 07:13:10;;;;;;;6.53;1.30;;;3.60;99.90;;;2.05;100.00;100481.44;4936161;28;20034;-79
2022/02/05 07:15:47;;;;;;;3.35;1.17;;;3.60;99.90;;;2.02;100.00;100487.56;4915313;28;20049;-79
2022/02/05 07:18:50;;;;;;;9.15;1.20;;;3.60;99.90;;;2.07;100.00;100482.28;4872696;28;20109;-79
2022/02/05 07:21:11;;;;;;;6.45;1.40;;;3.60;99.90;;;2.03;100.00;100486.69;4906255;28;20038;-79
2022/02/05 07:24:13;;;;;;;4.93;1.17;;;3.60;99.90;;;2.00;100.00;100481.53;4909092;28;20109;-80
2022/02/05 07:29:30;;;;;;;6.57;1.25;;;3.60;99.90;;;2.06;100.00;100503.94;4925670;28;20113;-81
2022/02/05 07:31:58;;;;;;;3.88;0.80;;;3.60;99.90;;;2.07;100.00;100512.59;4892343;28;20041;-79
2022/02/05 07:34:36;;;;;;;8.90;1.23;;;3.60;99.90;;;2.08;100.00;100525.56;4910834;28;20026;-79
2022/02/05 07:37:04;;;;;;;2.60;0.75;;;3.60;99.90;;;2.06;100.00;100524.72;4903339;28;20026;-79
2022/02/05 07:39:45;;;;;;;6.20;1.00;;;3.60;99.90;;;2.04;100.00;100526.50;4912558;28;20026;-79
2022/02/05 07:42:18;;;;;;;8.23;1.00;;;3.50;99.90;;;1.96;100.00;100533.53;4937101;28;21074;-79
2022/02/05 07:44:44;;;;;;;4.60;0.73;;;3.50;99.90;;;2.00;100.00;100533.47;4917053;28;20053;-79
2022/02/05 07:47:10;;;;;;;6.30;1.10;;;3.50;99.90;;;2.12;100.00;100535.03;4946221;28;20087;-80
2022/02/05 07:49:42;;;;;;;8.65;1.15;;;3.60;99.90;;;2.87;100.00;100544.22;4921550;28;20152;-78
2022/02/05 07:52:11;;;;;;;8.35;1.17;;;3.70;99.90;;;2.29;100.00;100552.97;4943644;28;20025;-78
2022/02/05 07:54:38;;;;;;;8.07;1.08;;;3.70;99.90;;;2.08;100.00;100563.69;4922974;28;20170;-79
2022/02/05 07:57:05;;;;;;;7.30;1.00;;;3.60;99.90;;;1.97;100.00;100563.81;4874163;28;20050;-79
2022/02/05 07:59:31;;;;;;;7.93;1.00;;;3.60;99.90;;;1.91;100.00;100580.34;4942269;28;20107;-80
2022/02/05 08:02:03;;;;;;;10.98;1.45;;;3.50;99.90;;;1.87;100.00;100572.63;4931097;28;20014;-78
2022/02/05 08:04:29;;;;;;;6.80;1.27;;;3.40;99.90;;;1.85;100.00;100591.66;4908451;28;20719;-79
2022/02/05 08:06:57;;;;;;;13.15;1.30;;;3.40;99.90;;;1.95;100.00;100576.81;4931614;28;20033;-80
2022/02/05 08:09:29;;;;;;;9.40;1.30;;;3.40;99.90;;;2.09;100.00;100588.75;4925149;28;20042;-81
2022/02/05 08:12:04;;;;;;;12.30;1.10;;;3.50;99.90;;;2.20;100.00;100573.88;4902337;28;20173;-80
2022/02/05 08:14:36;;;;;;;12.80;1.50;;;3.60;99.90;;;2.50;100.00;100588.13;4924819;28;20025;-79
2022/02/05 08:17:14;;;;;;;7.03;1.30;;;3.80;99.90;;;2.61;100.00;100591.47;4904728;28;22514;-79
2022/02/05 08:19:40;;;;;;;8.02;1.00;;;3.80;99.90;;;2.60;100.00;100596.66;4902855;28;20030;-80
2022/02/05 08:22:06;;;;;;;12.20;1.20;;;3.90;99.90;;;2.60;100.00;100605.31;4918417;28;20051;-79
2022/02/05 08:24:32;;;;;;;9.85;1.20;;;3.90;99.90;;;2.67;100.00;100608.69;4925395;28;20430;-79
2022/02/05 08:26:58;;;;;;;11.65;1.42;;;4.00;99.90;;;2.77;100.00;100599.84;4917051;28;21423;-79
2022/02/05 08:29:35;;;;;;;11.48;1.38;;;4.10;99.90;;;2.90;100.00;100613.50;4942010;28;20060;-79
2022/02/05 08:32:01;;;;;;;11.73;1.33;;;4.20;99.90;;;3.01;100.00;100619.38;4913252;28;20050;-79
2022/02/05 08:34:27;;;;;;;12.90;1.02;;;4.30;99.90;;;3.15;100.00;100616.53;4929033;28;20029;-79
2022/02/05 08:36:59;;;;;;;13.95;1.63;;;4.30;99.90;;;3.14;100.00;100612.22;4895841;28;20564;-79
2022/02/05 08:39:27;;;;;;;15.95;1.50;;;4.40;99.90;;;3.11;100.00;100614.91;4937037;28;20021;-79
2022/02/05 08:41:53;;;;;;;9.77;1.10;;;4.40;99.90;;;3.15;100.00;100611.31;4911841;28;20034;-78
2022/02/05 08:44:19;;;;;;;11.75;1.83;;;4.50;99.90;;;3.21;100.00;100620.78;4910770;28;20032;-78
2022/02/05 08:46:53;;;;;;;13.90;1.40;;;4.50;99.90;;;3.30;100.00;100618.00;4911255;28;20135;-80
2022/02/05 08:49:20;;;;;;;8.57;1.25;;;4.60;99.90;;;3.49;100.00;100619.38;4967812;28;20481;-78
2022/02/05 08:51:46;;;;;;;19.13;1.80;;;4.80;99.90;;;3.72;100.00;100638.91;4934881;28;20030;-79
2022/02/05 08:54:18;;;;;;;12.85;1.60;;;4.90;99.90;;;3.60;100.00;100633.94;4924115;28;20040;-79
2022/02/05 08:56:44;;;;;;;10.07;1.30;;;4.90;99.90;;;3.55;100.00;100636.63;4932666;28;20111;-78
2022/02/05 08:59:10;;;;;;;10.73;1.60;;;4.90;99.90;;;3.53;100.00;100637.56;4904018;28;20050;-79
2022/02/05 09:02:14;;;;;;;11.95;1.80;;;4.90;99.90;;;3.52;100.00;100641.03;4911826;28;20576;-79
2022/02/05 09:04:48;;;;;;;11.75;1.67;;;5.00;99.90;;;3.68;100.00;100647.66;4937461;28;20050;-80
2022/02/05 09:07:14;;;;;;;16.92;2.05;;;5.00;99.90;;;3.81;100.00;100663.91;4898865;28;20076;-79
2022/02/05 09:14:50;;;;;;;10.48;1.25;;;5.00;99.90;;;3.69;100.00;100665.88;4939694;28;21378;-80
2022/02/05 09:17:16;;;;;;;11.15;1.70;;;5.10;99.90;;;3.87;100.00;100685.50;4911961;28;20039;-80
2022/02/05 09:19:43;;;;;;;7.72;1.73;;;5.10;99.90;;;3.75;100.00;100671.84;4915699;28;20511;-79
2022/02/05 09:22:11;;;;;;;21.38;2.55;;;5.10;99.90;;;3.69;100.00;100673.69;4894709;28;20057;-79
2022/02/05 09:24:46;;;;;;;14.27;1.42;;;5.10;99.90;;;3.84;100.00;100679.47;4936701;28;20565;-78
2022/02/05 09:27:13;;;;;;;10.23;1.30;;;5.20;99.90;;;3.96;100.00;100678.38;4905076;28;20528;-78
2022/02/05 09:30:13;;;;;;;12.60;1.40;;;5.20;99.90;;;3.74;100.00;100678.81;4926689;28;21334;-79
2022/02/05 09:32:33;;;;;;;11.77;1.50;;;5.10;99.90;;;3.64;100.00;100688.53;4911406;28;20506;-80
2022/02/05 09:35:07;;;;;;;14.35;1.60;;;5.10;99.90;;;3.58;100.00;100687.78;4961815;28;20404;-78
2022/02/05 09:37:34;;;;;;;22.35;2.03;;;5.00;99.90;;;3.66;100.00;100696.31;4888787;28;20028;-79
2022/02/05 09:40:00;;;;;;;20.70;2.58;;;5.00;99.90;;;3.56;100.00;100687.78;4918990;28;20520;-78
2022/02/05 09:42:26;;;;;;;14.98;2.47;;;5.00;99.90;;;3.65;100.00;100694.59;4911419;28;20030;-79
2022/02/05 09:45:00;;;;;;;12.02;1.67;;;5.10;99.90;;;3.97;100.00;100701.78;4924293;28;20018;-79
2022/02/05 09:47:26;;;;;;;13.60;1.60;;;5.30;99.90;;;3.98;100.00;100698.31;4902083;28;20391;-78
2022/02/05 09:49:52;;;;;;;19.30;1.85;;;5.30;99.90;;;3.94;99.97;100704.47;4930341;28;20030;-78
2022/02/05 09:52:26;;;;;;;12.90;2.28;;;5.30;99.90;;;3.86;99.72;100702.00;4908938;28;20026;-79
2022/02/05 09:54:53;;;;;;;15.68;1.80;;;5.30;99.90;;;3.87;99.33;100716.75;4945290;28;20041;-80
2022/02/05 09:57:19;;;;;;;16.70;1.85;;;5.40;99.90;;;3.98;99.31;100705.28;4945404;28;20038;-78
2022/02/05 10:00:00;;;;;;;12.77;1.95;;;5.50;99.90;;;4.18;100.00;100717.88;4937278;28;20593;-78
2022/02/05 10:02:37;;;;;;;12.18;1.88;;;5.50;99.90;;;4.21;99.88;100717.81;4919380;28;20223;-78
2022/02/05 10:05:19;;;;;;;13.77;2.63;;;5.60;99.90;;;4.30;99.24;100715.03;4930504;28;20030;-78
2022/02/05 10:08:01;;;;;;;18.63;2.72;;;5.60;99.90;;;4.37;98.64;100713.16;4958148;28;20033;-78
2022/02/05 10:10:43;;;;;;;13.30;1.67;;;5.70;99.90;;;4.35;98.16;100723.63;4911764;28;20025;-78
2022/02/05 10:13:18;;;;;;;14.40;1.63;;;5.70;99.90;;;4.37;97.75;100721.84;4930418;28;20101;-79
2022/02/05 10:15:58;;;;;;;15.05;1.92;;;5.70;99.90;;;4.23;97.55;100698.66;4952522;28;20036;-78
2022/02/05 10:18:38;;;;;;;17.95;2.33;;;5.70;99.90;;;4.29;97.81;100732.41;4930115;28;20394;-79
2022/02/05 10:21:29;;;;;;;21.95;5.45;;;5.80;99.90;;;4.43;97.78;100733.91;4970598;28;20041;-79
2022/02/05 10:24:08;;;;;;;17.52;4.57;;;5.80;99.90;;;4.40;97.06;100729.56;4957920;28;20021;-78
2022/02/05 10:26:38;;;;;;;30.80;6.97;;;5.80;99.90;;;4.45;97.19;100739.91;4951924;28;20044;-78
2022/02/05 10:29:16;;;;;;;22.63;4.88;;;5.90;99.90;;;4.60;97.38;100744.81;4932827;28;20045;-79
2022/02/05 10:32:13;;;;;;;19.40;5.13;;;6.00;99.90;;;4.74;97.52;100741.91;4965106;28;20048;-78
2022/02/05 10:35:02;;;;;;;17.98;2.80;;;6.10;99.90;;;4.94;97.35;100749.25;4928654;28;20033;-79
2022/02/05 10:37:41;;;;;;;14.80;2.15;;;6.20;99.90;;;5.00;96.48;100749.13;4935223;28;20067;-77
2022/02/05 10:40:14;;;;;;;16.30;2.63;;;6.30;99.90;;;5.09;95.73;100756.72;4953910;28;20111;-78
2022/02/05 10:43:02;;;;;;;20.38;4.97;;;6.40;99.90;;;5.24;95.56;100762.50;4931798;28;20512;-78
2022/02/05 10:45:50;;;;;;;15.00;2.65;;;6.50;99.90;;;5.20;95.25;100756.47;4945203;28;20493;-80
2022/02/05 10:48:26;;;;;;;19.90;3.72;;;6.50;99.90;;;5.17;95.17;100769.63;4960049;28;20390;-83
2022/02/05 10:50:55;;;;;;;18.77;6.30;;;6.50;99.90;;;5.12;95.69;100761.91;4928847;28;20410;-79
2022/02/05 10:53:34;;;;;;;15.65;2.45;;;6.50;99.90;;;5.06;95.15;100764.66;4926995;28;20041;-79
2022/02/05 10:56:17;;;;;;;15.68;3.13;;;6.50;99.90;;;5.14;94.83;100756.66;4950081;28;20048;-83
2022/02/05 11:07:30;;;;;;;25.10;2.83;;;6.60;99.90;;;5.23;93.89;100763.41;5012878;28;20048;-82
2022/02/05 11:10:06;;;;;;;19.63;2.92;;;6.60;99.90;;;5.22;94.14;100764.28;4932229;28;20041;-85
2022/02/05 11:19:11;;;;;;;19.70;2.20;;;6.70;99.90;;;5.45;94.00;100767.19;4909997;28;21260;-84
2022/02/05 11:21:07;;;;;;;12.77;2.10;;;6.90;99.90;;;5.69;93.70;100767.47;4910349;28;20509;-83
2022/02/05 11:24:13;;;;;;;15.20;2.15;;;7.00;99.90;;;6.02;93.25;100770.13;4900248;28;20148;-83
2022/02/05 11:26:50;;;;;;;15.60;2.40;;;7.20;99.90;;;6.09;92.05;100762.09;4935699;28;20030;-84
2022/02/05 11:29:32;;;;;;;18.05;1.77;;;7.30;99.90;;;6.18;92.16;100762.72;4906834;28;20113;-84
2022/02/05 11:32:45;;;;;;;19.17;2.38;;;7.40;99.90;;;6.12;91.54;100763.75;4919883;28;20046;-81
2022/02/05 11:35:18;;;;;;;20.70;2.58;;;7.40;99.90;;;6.10;91.68;100762.94;4911972;28;20575;-82
2022/02/05 11:38:06;;;;;;;21.52;2.17;;;7.40;99.90;;;6.07;91.36;100755.16;4927238;28;20448;-84
2022/02/05 11:40:49;;;;;;;24.52;2.60;;;7.40;99.90;;;6.07;91.14;100765.63;4951049;28;20517;-82
2022/02/05 11:43:31;;;;;;;12.45;1.73;;;7.30;99.90;;;6.04;91.24;100763.09;4933096;28;20045;-85
2022/02/05 11:46:32;;;;;;;17.95;1.88;;;7.40;99.90;;;5.92;90.69;100764.28;4955698;28;20132;-83
2022/02/05 11:49:06;;;;;;;17.90;3.03;;;7.20;99.90;;;5.78;90.93;100780.28;4931136;28;20474;-84
2022/02/05 11:51:45;;;;;;;17.88;2.20;;;7.20;99.90;;;5.70;90.82;100777.91;4963665;28;20087;-83
2022/02/05 11:54:58;;;;;;;13.70;2.20;;;7.20;99.90;;;5.84;91.08;100767.06;4945014;28;20541;-83
2022/02/05 11:58:07;;;;;;;24.35;2.45;;;7.20;99.90;;;5.88;90.77;100773.94;4963791;28;20838;-83
2022/02/05 12:01:02;;;;;;;23.90;2.58;;;7.20;99.90;;;5.82;90.11;100781.94;4881602;28;20062;-83
2022/02/05 12:04:18;;;;;;;18.85;2.55;;;7.30;99.90;;;5.91;90.78;100786.91;4931372;28;20037;-83
2022/02/05 12:06:54;;;;;;;19.55;2.63;;;;;;;5.89;90.85;100778.25;4939006;28;20492;-83
2022/02/05 12:09:39;;;;;;;28.98;3.10;;;7.30;99.90;;;5.93;91.54;100784.25;4902694;28;20126;-83
2022/02/05 12:12:38;;;;;;;28.40;3.13;;;7.30;99.90;;;5.88;91.18;100781.78;4946908;28;20430;-83
2022/02/05 12:15:25;;;;;;;24.23;2.55;;;7.30;99.90;;;5.83;91.66;100778.44;4937086;28;20037;-84
2022/02/05 12:21:07;;;;;;;22.13;3.17;;;7.30;99.90;;;5.92;90.87;100783.41;4936674;28;20045;-83
2022/02/05 12:24:14;;;;;;;20.10;3.38;;;;;;;5.97;90.64;100767.63;4895803;28;20526;-82
2022/02/05 12:26:53;;;;;;;25.88;5.22;;;;;;;6.01;89.19;100782.34;4937118;28;20049;-83
2022/02/05 12:32:28;;;;;;;19.88;2.90;;;;;;;6.12;88.64;100787.28;4917480;28;20037;-83
2022/02/05 12:34:57;;;;;;;22.42;2.90;;;7.40;99.90;;;6.08;88.11;100789.13;4915223;28;20164;-83
2022/02/05 12:37:25;;;;;;;18.38;2.72;;;;;;;6.09;88.54;100795.19;4940358;28;20084;-83
2022/02/05 12:40:01;;;;;;;32.38;3.60;;;7.50;99.90;;;6.07;88.69;100776.06;4912961;28;20485;-83
2022/02/05 12:42:39;;;;;;;20.20;2.33;;;7.50;99.90;;;6.03;88.21;100800.63;4940250;28;20038;-84
2022/02/05 12:45:18;;;;;;;24.70;2.67;;;7.40;99.90;;;6.01;87.76;100797.19;4922627;28;20621;-84
2022/02/05 12:48:00;;;;;;;18.88;2.65;;;7.40;99.90;;;6.01;87.83;100795.41;4917081;28;20051;-83
2022/02/05 12:50:56;;;;;;;18.77;2.75;;;7.40;99.90;;;5.91;87.21;100781.69;4915335;28;20041;-83
2022/02/05 12:53:36;;;;;;;18.63;2.67;;;;;;;5.84;87.11;100790.59;4955771;28;20033;-83
2022/02/05 12:56:15;;;;;;;18.52;2.33;;;7.30;99.90;;;5.83;87.43;100778.44;4956186;28;20129;-83
2022/02/05 12:59:41;;;;;;;16.50;2.50;;;7.30;99.90;;;5.72;87.26;100773.50;4978872;28;20030;-84
2022/02/05 13:02:23;;;;;;;11.25;2.38;;;7.20;99.90;;;5.62;87.32;100790.28;4896524;28;20117;-83
2022/02/05 13:05:03;;;;;;;16.98;3.20;;;;;;;5.56;87.28;100780.00;4918448;28;20046;-85
2022/02/05 13:07:39;;;;;;;13.32;2.42;;;7.10;99.90;;;5.54;87.52;100787.84;4895488;28;20552;-84
2022/02/05 13:10:09;;;;;;;22.10;2.92;;;7.00;99.90;;;5.55;87.77;100783.50;4882927;28;20038;-83
2022/02/05 13:12:51;;;;;;;15.95;2.67;;;;;;;5.51;87.89;100789.72;4900003;28;20038;-83
2022/02/05 13:15:30;;;;;;;19.02;2.53;;;7.00;99.90;;;5.52;87.96;100797.47;4947417;28;20052;-84
2022/02/05 13:26:28;;;;;;;13.68;2.33;;;7.00;99.90;;;5.52;88.15;100805.31;4955783;28;20044;-83
2022/02/05 13:29:25;;;;;;;25.15;2.90;;;;;;;5.34;88.12;100790.97;4922336;28;20164;-85